High Shoals, North Carolina
Current Conditions -  °F | °C
As of 2:15 PM on Friday 21 Nov 2014 (Local Time) from KIPJ Reporting Station
Clear Clear  
Wind Chill: 56°   Ceiling: Unl
Heat Index: 56°   Visibility: 10mi
Dew Point:   Wind: 6mph
Humidity: 13%   Direction: 300°WNW
Pressure: 30.37"   Gusts: NA
Location:  35.4°N, 81.2°W
Report Text: KIPJ 211915Z AUTO 30005KT 10SM CLR 14/M15 A3037 RMK AO2 T01351151
Loading
Personal Weather Stations






























Interactive Weather Map New forecast layout! Learn more

10-Day Weather Forecast

Advertisements
Track Severe Weather on mobile